sensor_id;sensor_type;location;lat;lon;timestamp;P1;durP1;ratioP1;P2;durP2;ratioP2
81815;SDS011;71249;52.084;5.304;2024-02-16T00:00:51;6.9;;;3.9;;
81815;SDS011;71249;52.084;5.304;2024-02-16T00:04:03;5.6;;;3.6;;
81815;SDS011;71249;52.084;5.304;2024-02-16T00:05:42;6.9;;;3.8;;
81815;SDS011;71249;52.084;5.304;2024-02-16T00:07:18;5.5;;;3.7;;
81815;SDS011;71249;52.084;5.304;2024-02-16T00:10:30;5.5;;;3.6;;
81815;SDS011;71249;52.084;5.304;2024-02-16T00:12:06;6.7;;;3.7;;
81815;SDS011;71249;52.084;5.304;2024-02-16T00:13:42;8.1;;;3.9;;
81815;SDS011;71249;52.084;5.304;2024-02-16T00:15:19;7.2;;;3.7;;
81815;SDS011;71249;52.084;5.304;2024-02-16T00:18:34;6.0;;;4.0;;
81815;SDS011;71249;52.084;5.304;2024-02-16T00:20:10;7.1;;;3.6;;
81815;SDS011;71249;52.084;5.304;2024-02-16T00:21:46;4.61;;;3.5;;
81815;SDS011;71249;52.084;5.304;2024-02-16T00:24:58;8.81;;;3.9;;
81815;SDS011;71249;52.084;5.304;2024-02-16T00:26:34;6.3;;;4.0;;
81815;SDS011;71249;52.084;5.304;2024-02-16T00:28:12;6.3;;;4.0;;
81815;SDS011;71249;52.084;5.304;2024-02-16T00:31:24;6.1;;;4.2;;
81815;SDS011;71249;52.084;5.304;2024-02-16T00:33:00;8.2;;;3.3;;
81815;SDS011;71249;52.084;5.304;2024-02-16T00:34:36;4.7;;;3.5;;
81815;SDS011;71249;52.084;5.304;2024-02-16T00:36:12;6.7;;;3.7;;
81815;SDS011;71249;52.084;5.304;2024-02-16T00:39:24;6.9;;;4.0;;
81815;SDS011;71249;52.084;5.304;2024-02-16T00:41:00;7.0;;;4.0;;
81815;SDS011;71249;52.084;5.304;2024-02-16T00:42:37;6.7;;;3.8;;
81815;SDS011;71249;52.084;5.304;2024-02-16T00:45:49;5.2;;;4.1;;
81815;SDS011;71249;52.084;5.304;2024-02-16T00:47:25;6.9;;;3.9;;
81815;SDS011;71249;52.084;5.304;2024-02-16T00:49:01;5.5;;;3.6;;
81815;SDS011;71249;52.084;5.304;2024-02-16T00:52:13;5.6;;;4.0;;
81815;SDS011;71249;52.084;5.304;2024-02-16T00:53:49;5.7;;;3.4;;
81815;SDS011;71249;52.084;5.304;2024-02-16T00:55:25;6.2;;;3.4;;
81815;SDS011;71249;52.084;5.304;2024-02-16T00:58:39;5.6;;;3.5;;
81815;SDS011;71249;52.084;5.304;2024-02-16T01:00:16;6.8;;;3.6;;
81815;SDS011;71249;52.084;5.304;2024-02-16T01:01:52;3.9;;;3.5;;
81815;SDS011;71249;52.084;5.304;2024-02-16T01:03:28;8.0;;;4.0;;
81815;SDS011;71249;52.084;5.304;2024-02-16T01:06:40;6.1;;;3.5;;
81815;SDS011;71249;52.084;5.304;2024-02-16T01:08:16;5.3;;;3.8;;
81815;SDS011;71249;52.084;5.304;2024-02-16T01:09:52;6.9;;;3.6;;
81815;SDS011;71249;52.084;5.304;2024-02-16T01:13:05;6.0;;;3.7;;
81815;SDS011;71249;52.084;5.304;2024-02-16T01:14:41;5.8;;;3.5;;
81815;SDS011;71249;52.084;5.304;2024-02-16T01:16:17;5.3;;;3.5;;
81815;SDS011;71249;52.084;5.304;2024-02-16T01:19:29;5.2;;;3.7;;
81815;SDS011;71249;52.084;5.304;2024-02-16T01:21:05;6.5;;;3.6;;
81815;SDS011;71249;52.084;5.304;2024-02-16T01:22:41;9.21;;;4.0;;
81815;SDS011;71249;52.084;5.304;2024-02-16T01:24:18;7.0;;;3.5;;
81815;SDS011;71249;52.084;5.304;2024-02-16T01:27:30;5.9;;;3.3;;
81815;SDS011;71249;52.084;5.304;2024-02-16T01:29:06;4.91;;;3.6;;
81815;SDS011;71249;52.084;5.304;2024-02-16T01:30:42;6.1;;;3.9;;
81815;SDS011;71249;52.084;5.304;2024-02-16T01:33:54;5.8;;;4.0;;
81815;SDS011;71249;52.084;5.304;2024-02-16T01:35:30;7.3;;;3.8;;
81815;SDS011;71249;52.084;5.304;2024-02-16T01:37:07;4.8;;;3.5;;
81815;SDS011;71249;52.084;5.304;2024-02-16T01:40:19;6.6;;;3.7;;
81815;SDS011;71249;52.084;5.304;2024-02-16T01:41:55;5.0;;;3.4;;
81815;SDS011;71249;52.084;5.304;2024-02-16T01:43:31;6.9;;;3.8;;
81815;SDS011;71249;52.084;5.304;2024-02-16T01:46:44;5.5;;;3.4;;
81815;SDS011;71249;52.084;5.304;2024-02-16T01:48:20;5.8;;;3.5;;
81815;SDS011;71249;52.084;5.304;2024-02-16T01:49:56;4.7;;;3.1;;
81815;SDS011;71249;52.084;5.304;2024-02-16T01:51:33;6.3;;;3.7;;
81815;SDS011;71249;52.084;5.304;2024-02-16T01:54:48;5.11;;;3.6;;
81815;SDS011;71249;52.084;5.304;2024-02-16T01:56:24;5.2;;;3.3;;
81815;SDS011;71249;52.084;5.304;2024-02-16T01:58:00;8.0;;;3.9;;
81815;SDS011;71249;52.084;5.304;2024-02-16T02:01:12;5.5;;;3.8;;
81815;SDS011;71249;52.084;5.304;2024-02-16T02:02:48;8.2;;;4.0;;
81815;SDS011;71249;52.084;5.304;2024-02-16T02:04:25;6.2;;;3.9;;
81815;SDS011;71249;52.084;5.304;2024-02-16T02:07:38;6.4;;;3.6;;
81815;SDS011;71249;52.084;5.304;2024-02-16T02:09:14;7.5;;;3.6;;
81815;SDS011;71249;52.084;5.304;2024-02-16T02:10:50;6.0;;;4.2;;
81815;SDS011;71249;52.084;5.304;2024-02-16T02:12:26;6.0;;;3.4;;
81815;SDS011;71249;52.084;5.304;2024-02-16T02:15:38;5.2;;;3.4;;
81815;SDS011;71249;52.084;5.304;2024-02-16T02:17:14;6.1;;;3.6;;
81815;SDS011;71249;52.084;5.304;2024-02-16T02:18:50;6.0;;;3.5;;
81815;SDS011;71249;52.084;5.304;2024-02-16T02:22:03;7.2;;;3.7;;
81815;SDS011;71249;52.084;5.304;2024-02-16T02:23:39;5.0;;;3.6;;
81815;SDS011;71249;52.084;5.304;2024-02-16T02:25:15;6.3;;;3.5;;
81815;SDS011;71249;52.084;5.304;2024-02-16T02:28:27;5.6;;;3.6;;
81815;SDS011;71249;52.084;5.304;2024-02-16T02:30:04;5.7;;;3.5;;
81815;SDS011;71249;52.084;5.304;2024-02-16T02:31:41;7.0;;;3.5;;
81815;SDS011;71249;52.084;5.304;2024-02-16T02:33:17;6.3;;;3.4;;
81815;SDS011;71249;52.084;5.304;2024-02-16T02:36:30;6.3;;;3.8;;
81815;SDS011;71249;52.084;5.304;2024-02-16T02:38:06;7.3;;;3.4;;
81815;SDS011;71249;52.084;5.304;2024-02-16T02:39:42;7.0;;;3.8;;
81815;SDS011;71249;52.084;5.304;2024-02-16T02:42:54;5.7;;;3.7;;
81815;SDS011;71249;52.084;5.304;2024-02-16T02:44:30;7.0;;;3.9;;
81815;SDS011;71249;52.084;5.304;2024-02-16T02:46:06;6.4;;;4.0;;
81815;SDS011;71249;52.084;5.304;2024-02-16T02:49:19;4.7;;;3.9;;
81815;SDS011;71249;52.084;5.304;2024-02-16T02:50:55;5.8;;;3.6;;
81815;SDS011;71249;52.084;5.304;2024-02-16T02:52:31;5.4;;;3.8;;
81815;SDS011;71249;52.084;5.304;2024-02-16T02:55:43;6.3;;;3.7;;
81815;SDS011;71249;52.084;5.304;2024-02-16T02:57:19;6.2;;;3.8;;
81815;SDS011;71249;52.084;5.304;2024-02-16T02:58:55;5.9;;;3.9;;
81815;SDS011;71249;52.084;5.304;2024-02-16T03:00:31;6.1;;;3.7;;
81815;SDS011;71249;52.084;5.304;2024-02-16T03:03:44;6.5;;;3.9;;
81815;SDS011;71249;52.084;5.304;2024-02-16T03:05:20;8.81;;;3.8;;
81815;SDS011;71249;52.084;5.304;2024-02-16T03:06:56;5.9;;;3.7;;
81815;SDS011;71249;52.084;5.304;2024-02-16T03:10:08;6.2;;;3.4;;
81815;SDS011;71249;52.084;5.304;2024-02-16T03:11:45;6.2;;;3.4;;
81815;SDS011;71249;52.084;5.304;2024-02-16T03:13:24;7.0;;;3.2;;
81815;SDS011;71249;52.084;5.304;2024-02-16T03:16:36;4.91;;;3.6;;
81815;SDS011;71249;52.084;5.304;2024-02-16T03:18:13;7.7;;;3.8;;
81815;SDS011;71249;52.084;5.304;2024-02-16T03:19:49;6.4;;;3.6;;
81815;SDS011;71249;52.084;5.304;2024-02-16T03:21:25;7.0;;;3.9;;
81815;SDS011;71249;52.084;5.304;2024-02-16T03:24:37;7.1;;;3.8;;
81815;SDS011;71249;52.084;5.304;2024-02-16T03:26:13;6.3;;;4.0;;
81815;SDS011;71249;52.084;5.304;2024-02-16T03:27:50;6.5;;;3.8;;
81815;SDS011;71249;52.084;5.304;2024-02-16T03:31:03;6.1;;;4.1;;
81815;SDS011;71249;52.084;5.304;2024-02-16T03:32:39;6.2;;;3.7;;
81815;SDS011;71249;52.084;5.304;2024-02-16T03:34:15;5.3;;;3.5;;
81815;SDS011;71249;52.084;5.304;2024-02-16T03:37:28;5.11;;;3.4;;
81815;SDS011;71249;52.084;5.304;2024-02-16T03:39:04;4.8;;;3.7;;
81815;SDS011;71249;52.084;5.304;2024-02-16T03:40:40;6.2;;;3.8;;
81815;SDS011;71249;52.084;5.304;2024-02-16T03:43:52;5.9;;;4.1;;
81815;SDS011;71249;52.084;5.304;2024-02-16T03:45:28;7.4;;;4.3;;
81815;SDS011;71249;52.084;5.304;2024-02-16T03:47:04;6.2;;;3.7;;
81815;SDS011;71249;52.084;5.304;2024-02-16T03:48:40;6.3;;;3.6;;
81815;SDS011;71249;52.084;5.304;2024-02-16T03:51:54;6.5;;;4.2;;
81815;SDS011;71249;52.084;5.304;2024-02-16T03:53:30;7.6;;;3.9;;
81815;SDS011;71249;52.084;5.304;2024-02-16T03:55:06;5.9;;;3.7;;
81815;SDS011;71249;52.084;5.304;2024-02-16T03:58:19;4.41;;;3.5;;
81815;SDS011;71249;52.084;5.304;2024-02-16T03:59:55;4.41;;;3.3;;
81815;SDS011;71249;52.084;5.304;2024-02-16T04:01:31;5.4;;;3.9;;
81815;SDS011;71249;52.084;5.304;2024-02-16T04:04:43;5.0;;;3.7;;
81815;SDS011;71249;52.084;5.304;2024-02-16T04:06:20;5.0;;;3.7;;
81815;SDS011;71249;52.084;5.304;2024-02-16T04:07:56;4.8;;;3.8;;
81815;SDS011;71249;52.084;5.304;2024-02-16T04:09:32;6.1;;;3.5;;
81815;SDS011;71249;52.084;5.304;2024-02-16T04:12:46;6.3;;;3.6;;
81815;SDS011;71249;52.084;5.304;2024-02-16T04:14:22;6.8;;;3.4;;
81815;SDS011;71249;52.084;5.304;2024-02-16T04:15:58;5.8;;;3.7;;
81815;SDS011;71249;52.084;5.304;2024-02-16T04:19:10;6.3;;;3.8;;
81815;SDS011;71249;52.084;5.304;2024-02-16T04:20:47;8.31;;;4.0;;
81815;SDS011;71249;52.084;5.304;2024-02-16T04:22:23;6.1;;;4.0;;
81815;SDS011;71249;52.084;5.304;2024-02-16T04:25:35;5.4;;;3.7;;
81815;SDS011;71249;52.084;5.304;2024-02-16T04:27:11;6.4;;;3.9;;
81815;SDS011;71249;52.084;5.304;2024-02-16T04:28:47;4.61;;;3.5;;
81815;SDS011;71249;52.084;5.304;2024-02-16T04:31:59;6.4;;;3.7;;
81815;SDS011;71249;52.084;5.304;2024-02-16T04:33:35;5.3;;;4.0;;
81815;SDS011;71249;52.084;5.304;2024-02-16T04:35:12;5.5;;;3.7;;
81815;SDS011;71249;52.084;5.304;2024-02-16T04:36:48;4.5;;;3.3;;
81815;SDS011;71249;52.084;5.304;2024-02-16T04:40:00;6.7;;;3.9;;
81815;SDS011;71249;52.084;5.304;2024-02-16T04:41:36;6.8;;;3.8;;
81815;SDS011;71249;52.084;5.304;2024-02-16T04:43:12;5.7;;;3.5;;
81815;SDS011;71249;52.084;5.304;2024-02-16T04:46:25;6.8;;;4.0;;
81815;SDS011;71249;52.084;5.304;2024-02-16T04:48:02;5.6;;;3.7;;
81815;SDS011;71249;52.084;5.304;2024-02-16T04:49:39;7.4;;;3.8;;
81815;SDS011;71249;52.084;5.304;2024-02-16T04:52:51;5.2;;;3.9;;
81815;SDS011;71249;52.084;5.304;2024-02-16T04:54:27;5.11;;;3.6;;
81815;SDS011;71249;52.084;5.304;2024-02-16T04:56:03;5.8;;;3.4;;
81815;SDS011;71249;52.084;5.304;2024-02-16T04:57:40;7.0;;;4.2;;
81815;SDS011;71249;52.084;5.304;2024-02-16T05:00:52;8.81;;;3.7;;
81815;SDS011;71249;52.084;5.304;2024-02-16T05:02:29;5.3;;;3.9;;
81815;SDS011;71249;52.084;5.304;2024-02-16T05:04:05;7.2;;;4.0;;
81815;SDS011;71249;52.084;5.304;2024-02-16T05:07:17;5.4;;;4.2;;
81815;SDS011;71249;52.084;5.304;2024-02-16T05:08:53;7.6;;;4.5;;
81815;SDS011;71249;52.084;5.304;2024-02-16T05:10:31;5.3;;;3.7;;
81815;SDS011;71249;52.084;5.304;2024-02-16T05:13:43;7.2;;;4.2;;
81815;SDS011;71249;52.084;5.304;2024-02-16T05:15:20;6.0;;;4.3;;
81815;SDS011;71249;52.084;5.304;2024-02-16T05:16:56;6.8;;;3.7;;
81815;SDS011;71249;52.084;5.304;2024-02-16T05:18:32;5.11;;;3.2;;
81815;SDS011;71249;52.084;5.304;2024-02-16T05:21:46;6.4;;;3.8;;
81815;SDS011;71249;52.084;5.304;2024-02-16T05:23:22;5.5;;;3.1;;
81815;SDS011;71249;52.084;5.304;2024-02-16T05:24:58;4.8;;;3.5;;
81815;SDS011;71249;52.084;5.304;2024-02-16T05:28:12;4.8;;;3.5;;
81815;SDS011;71249;52.084;5.304;2024-02-16T05:29:48;4.3;;;3.8;;
81815;SDS011;71249;52.084;5.304;2024-02-16T05:31:24;8.1;;;4.0;;
81815;SDS011;71249;52.084;5.304;2024-02-16T05:34:36;6.0;;;3.9;;
81815;SDS011;71249;52.084;5.304;2024-02-16T05:36:12;5.9;;;3.6;;
81815;SDS011;71249;52.084;5.304;2024-02-16T05:37:51;6.9;;;3.5;;
81815;SDS011;71249;52.084;5.304;2024-02-16T05:39:30;6.0;;;4.1;;
81815;SDS011;71249;52.084;5.304;2024-02-16T05:42:43;6.3;;;4.3;;
81815;SDS011;71249;52.084;5.304;2024-02-16T05:44:19;7.3;;;4.0;;
81815;SDS011;71249;52.084;5.304;2024-02-16T05:45:55;6.7;;;4.2;;
81815;SDS011;71249;52.084;5.304;2024-02-16T05:49:07;5.8;;;3.8;;
81815;SDS011;71249;52.084;5.304;2024-02-16T05:50:43;7.4;;;4.1;;
81815;SDS011;71249;52.084;5.304;2024-02-16T05:52:19;5.9;;;3.6;;
81815;SDS011;71249;52.084;5.304;2024-02-16T05:55:31;5.9;;;3.6;;
81815;SDS011;71249;52.084;5.304;2024-02-16T05:57:08;8.0;;;4.2;;
81815;SDS011;71249;52.084;5.304;2024-02-16T05:58:44;6.4;;;3.9;;
81815;SDS011;71249;52.084;5.304;2024-02-16T06:01:57;6.3;;;3.9;;
81815;SDS011;71249;52.084;5.304;2024-02-16T06:03:33;6.0;;;3.5;;
81815;SDS011;71249;52.084;5.304;2024-02-16T06:05:09;7.1;;;3.9;;
81815;SDS011;71249;52.084;5.304;2024-02-16T06:06:45;6.7;;;3.8;;
81815;SDS011;71249;52.084;5.304;2024-02-16T06:09:57;4.91;;;3.4;;
81815;SDS011;71249;52.084;5.304;2024-02-16T06:11:36;6.1;;;3.9;;
81815;SDS011;71249;52.084;5.304;2024-02-16T06:13:15;6.8;;;4.1;;
81815;SDS011;71249;52.084;5.304;2024-02-16T06:16:27;6.3;;;3.9;;
81815;SDS011;71249;52.084;5.304;2024-02-16T06:18:03;5.11;;;3.8;;
81815;SDS011;71249;52.084;5.304;2024-02-16T06:19:39;7.2;;;3.9;;
81815;SDS011;71249;52.084;5.304;2024-02-16T06:22:51;8.1;;;4.3;;
81815;SDS011;71249;52.084;5.304;2024-02-16T06:24:27;6.8;;;3.3;;
81815;SDS011;71249;52.084;5.304;2024-02-16T06:26:06;8.81;;;4.41;;
81815;SDS011;71249;52.084;5.304;2024-02-16T06:27:42;8.1;;;3.8;;
81815;SDS011;71249;52.084;5.304;2024-02-16T06:30:54;6.0;;;4.0;;
81815;SDS011;71249;52.084;5.304;2024-02-16T06:32:30;4.91;;;3.7;;
81815;SDS011;71249;52.084;5.304;2024-02-16T06:34:06;7.0;;;4.2;;
81815;SDS011;71249;52.084;5.304;2024-02-16T06:37:18;7.0;;;3.9;;
81815;SDS011;71249;52.084;5.304;2024-02-16T06:38:55;7.2;;;3.8;;
81815;SDS011;71249;52.084;5.304;2024-02-16T06:40:32;7.4;;;4.2;;
81815;SDS011;71249;52.084;5.304;2024-02-16T06:43:44;7.5;;;3.9;;
81815;SDS011;71249;52.084;5.304;2024-02-16T06:45:20;7.7;;;4.1;;
81815;SDS011;71249;52.084;5.304;2024-02-16T06:46:59;6.6;;;3.6;;
81815;SDS011;71249;52.084;5.304;2024-02-16T06:50:11;5.2;;;3.3;;
81815;SDS011;71249;52.084;5.304;2024-02-16T06:51:47;5.3;;;3.7;;
81815;SDS011;71249;52.084;5.304;2024-02-16T06:53:23;6.2;;;3.3;;
81815;SDS011;71249;52.084;5.304;2024-02-16T06:56:36;6.9;;;3.6;;
81815;SDS011;71249;52.084;5.304;2024-02-16T06:58:13;6.8;;;3.9;;
81815;SDS011;71249;52.084;5.304;2024-02-16T06:59:49;5.6;;;3.5;;
81815;SDS011;71249;52.084;5.304;2024-02-16T07:03:01;5.6;;;3.7;;
81815;SDS011;71249;52.084;5.304;2024-02-16T07:04:39;6.5;;;3.5;;
81815;SDS011;71249;52.084;5.304;2024-02-16T07:06:15;10.3;;;4.3;;
81815;SDS011;71249;52.084;5.304;2024-02-16T07:07:51;6.7;;;3.6;;
81815;SDS011;71249;52.084;5.304;2024-02-16T07:11:04;6.7;;;3.6;;
81815;SDS011;71249;52.084;5.304;2024-02-16T07:12:41;6.4;;;4.0;;
81815;SDS011;71249;52.084;5.304;2024-02-16T07:14:17;6.1;;;3.8;;
81815;SDS011;71249;52.084;5.304;2024-02-16T07:17:30;6.3;;;4.3;;
81815;SDS011;71249;52.084;5.304;2024-02-16T07:19:06;5.7;;;4.2;;
81815;SDS011;71249;52.084;5.304;2024-02-16T07:20:42;6.1;;;4.0;;
81815;SDS011;71249;52.084;5.304;2024-02-16T07:23:55;6.6;;;3.9;;
81815;SDS011;71249;52.084;5.304;2024-02-16T07:25:31;6.1;;;4.1;;
81815;SDS011;71249;52.084;5.304;2024-02-16T07:27:07;8.6;;;4.41;;
81815;SDS011;71249;52.084;5.304;2024-02-16T07:30:21;7.9;;;3.6;;
81815;SDS011;71249;52.084;5.304;2024-02-16T07:31:57;6.7;;;4.2;;
81815;SDS011;71249;52.084;5.304;2024-02-16T07:33:33;6.5;;;3.4;;
81815;SDS011;71249;52.084;5.304;2024-02-16T07:35:09;5.6;;;4.1;;
81815;SDS011;71249;52.084;5.304;2024-02-16T07:38:21;6.7;;;3.9;;
81815;SDS011;71249;52.084;5.304;2024-02-16T07:39:57;8.5;;;4.5;;
81815;SDS011;71249;52.084;5.304;2024-02-16T07:41:33;7.2;;;4.2;;
81815;SDS011;71249;52.084;5.304;2024-02-16T07:44:49;6.0;;;4.2;;
81815;SDS011;71249;52.084;5.304;2024-02-16T07:46:25;6.0;;;4.2;;
81815;SDS011;71249;52.084;5.304;2024-02-16T07:48:01;7.5;;;4.0;;
81815;SDS011;71249;52.084;5.304;2024-02-16T07:51:14;4.41;;;3.7;;
81815;SDS011;71249;52.084;5.304;2024-02-16T07:52:50;5.2;;;4.41;;
81815;SDS011;71249;52.084;5.304;2024-02-16T07:54:26;5.11;;;3.3;;
81815;SDS011;71249;52.084;5.304;2024-02-16T07:56:02;6.3;;;4.3;;
81815;SDS011;71249;52.084;5.304;2024-02-16T07:59:14;7.3;;;4.1;;
81815;SDS011;71249;52.084;5.304;2024-02-16T08:00:50;6.1;;;4.1;;
81815;SDS011;71249;52.084;5.304;2024-02-16T08:02:27;5.3;;;3.9;;
81815;SDS011;71249;52.084;5.304;2024-02-16T08:05:39;7.1;;;4.5;;
81815;SDS011;71249;52.084;5.304;2024-02-16T08:07:15;5.8;;;4.3;;
81815;SDS011;71249;52.084;5.304;2024-02-16T08:08:51;6.8;;;4.2;;
81815;SDS011;71249;52.084;5.304;2024-02-16T08:12:03;7.4;;;4.41;;
81815;SDS011;71249;52.084;5.304;2024-02-16T08:13:39;7.4;;;3.7;;
81815;SDS011;71249;52.084;5.304;2024-02-16T08:15:16;5.2;;;4.1;;
81815;SDS011;71249;52.084;5.304;2024-02-16T08:16:53;7.3;;;4.3;;
81815;SDS011;71249;52.084;5.304;2024-02-16T08:20:05;6.2;;;4.8;;
81815;SDS011;71249;52.084;5.304;2024-02-16T08:21:43;8.2;;;4.41;;
81815;SDS011;71249;52.084;5.304;2024-02-16T08:23:19;6.8;;;4.5;;
81815;SDS011;71249;52.084;5.304;2024-02-16T08:26:32;8.5;;;4.91;;
81815;SDS011;71249;52.084;5.304;2024-02-16T08:28:08;6.4;;;4.41;;
81815;SDS011;71249;52.084;5.304;2024-02-16T08:29:44;6.8;;;4.61;;
81815;SDS011;71249;52.084;5.304;2024-02-16T08:32:57;8.9;;;4.5;;
81815;SDS011;71249;52.084;5.304;2024-02-16T08:34:33;7.8;;;4.3;;
81815;SDS011;71249;52.084;5.304;2024-02-16T08:36:09;9.5;;;5.3;;
81815;SDS011;71249;52.084;5.304;2024-02-16T08:39:21;6.6;;;5.11;;
81815;SDS011;71249;52.084;5.304;2024-02-16T08:40:57;7.9;;;5.0;;
81815;SDS011;71249;52.084;5.304;2024-02-16T08:42:34;6.9;;;4.8;;
81815;SDS011;71249;52.084;5.304;2024-02-16T08:44:10;5.5;;;4.0;;
81815;SDS011;71249;52.084;5.304;2024-02-16T08:47:23;5.9;;;4.41;;
81815;SDS011;71249;52.084;5.304;2024-02-16T08:48:59;5.3;;;4.1;;
81815;SDS011;71249;52.084;5.304;2024-02-16T08:50:35;8.6;;;4.61;;
81815;SDS011;71249;52.084;5.304;2024-02-16T08:53:47;6.6;;;4.3;;
81815;SDS011;71249;52.084;5.304;2024-02-16T08:55:23;8.0;;;4.61;;
81815;SDS011;71249;52.084;5.304;2024-02-16T08:57:00;6.7;;;4.61;;
81815;SDS011;71249;52.084;5.304;2024-02-16T09:00:12;7.8;;;4.8;;
81815;SDS011;71249;52.084;5.304;2024-02-16T09:01:49;7.0;;;4.8;;
81815;SDS011;71249;52.084;5.304;2024-02-16T09:03:25;8.1;;;4.61;;
81815;SDS011;71249;52.084;5.304;2024-02-16T09:05:01;8.4;;;5.11;;
81815;SDS011;71249;52.084;5.304;2024-02-16T09:08:13;7.1;;;4.3;;
81815;SDS011;71249;52.084;5.304;2024-02-16T09:09:49;6.5;;;4.61;;
81815;SDS011;71249;52.084;5.304;2024-02-16T09:11:25;8.81;;;5.0;;
81815;SDS011;71249;52.084;5.304;2024-02-16T09:14:41;6.8;;;5.0;;
81815;SDS011;71249;52.084;5.304;2024-02-16T09:16:17;8.0;;;5.2;;
81815;SDS011;71249;52.084;5.304;2024-02-16T09:17:53;7.2;;;4.61;;
81815;SDS011;71249;52.084;5.304;2024-02-16T09:21:05;7.9;;;5.4;;
81815;SDS011;71249;52.084;5.304;2024-02-16T09:22:42;7.5;;;5.2;;
81815;SDS011;71249;52.084;5.304;2024-02-16T09:24:23;9.5;;;5.2;;
81815;SDS011;71249;52.084;5.304;2024-02-16T09:25:59;10.7;;;5.3;;
81815;SDS011;71249;52.084;5.304;2024-02-16T09:29:12;8.1;;;5.4;;
81815;SDS011;71249;52.084;5.304;2024-02-16T09:30:49;8.1;;;5.8;;
81815;SDS011;71249;52.084;5.304;2024-02-16T09:32:25;8.4;;;5.8;;
81815;SDS011;71249;52.084;5.304;2024-02-16T09:35:37;9.6;;;5.8;;
81815;SDS011;71249;52.084;5.304;2024-02-16T09:37:13;10.4;;;6.6;;
81815;SDS011;71249;52.084;5.304;2024-02-16T09:38:49;9.9;;;5.9;;
81815;SDS011;71249;52.084;5.304;2024-02-16T09:42:01;8.71;;;6.1;;
81815;SDS011;71249;52.084;5.304;2024-02-16T09:43:37;12.3;;;8.4;;
81815;SDS011;71249;52.084;5.304;2024-02-16T09:45:14;9.31;;;6.8;;
81815;SDS011;71249;52.084;5.304;2024-02-16T09:46:51;10.1;;;6.8;;
81815;SDS011;71249;52.084;5.304;2024-02-16T09:50:06;10.1;;;6.8;;
81815;SDS011;71249;52.084;5.304;2024-02-16T09:51:43;9.81;;;6.5;;
81815;SDS011;71249;52.084;5.304;2024-02-16T09:53:19;8.6;;;6.1;;
81815;SDS011;71249;52.084;5.304;2024-02-16T09:56:32;8.0;;;6.2;;
81815;SDS011;71249;52.084;5.304;2024-02-16T09:58:08;8.1;;;5.9;;
81815;SDS011;71249;52.084;5.304;2024-02-16T09:59:47;8.4;;;5.7;;
81815;SDS011;71249;52.084;5.304;2024-02-16T10:03:00;10.0;;;6.8;;
81815;SDS011;71249;52.084;5.304;2024-02-16T10:04:36;10.21;;;6.1;;
81815;SDS011;71249;52.084;5.304;2024-02-16T10:06:12;10.5;;;6.4;;
81815;SDS011;71249;52.084;5.304;2024-02-16T10:07:49;10.1;;;6.9;;
81815;SDS011;71249;52.084;5.304;2024-02-16T10:11:04;9.71;;;6.4;;
81815;SDS011;71249;52.084;5.304;2024-02-16T10:12:40;10.5;;;6.7;;
81815;SDS011;71249;52.084;5.304;2024-02-16T10:14:16;11.0;;;7.1;;
81815;SDS011;71249;52.084;5.304;2024-02-16T10:17:40;10.5;;;6.8;;
81815;SDS011;71249;52.084;5.304;2024-02-16T10:19:17;8.6;;;6.2;;
81815;SDS011;71249;52.084;5.304;2024-02-16T10:20:54;9.1;;;6.9;;
81815;SDS011;71249;52.084;5.304;2024-02-16T10:22:30;8.4;;;6.5;;
81815;SDS011;71249;52.084;5.304;2024-02-16T10:25:45;11.4;;;6.9;;
81815;SDS011;71249;52.084;5.304;2024-02-16T10:27:21;9.6;;;7.5;;
81815;SDS011;71249;52.084;5.304;2024-02-16T10:28:57;11.1;;;8.71;;
81815;SDS011;71249;52.084;5.304;2024-02-16T10:32:12;12.0;;;8.1;;
81815;SDS011;71249;52.084;5.304;2024-02-16T10:33:49;14.7;;;8.71;;
81815;SDS011;71249;52.084;5.304;2024-02-16T10:35:25;13.5;;;8.6;;
81815;SDS011;71249;52.084;5.304;2024-02-16T10:37:05;12.5;;;9.21;;
81815;SDS011;71249;52.084;5.304;2024-02-16T10:40:20;12.3;;;8.6;;
81815;SDS011;71249;52.084;5.304;2024-02-16T10:41:58;10.3;;;7.8;;
81815;SDS011;71249;52.084;5.304;2024-02-16T10:43:37;9.9;;;8.2;;
81815;SDS011;71249;52.084;5.304;2024-02-16T10:46:49;12.8;;;8.31;;
81815;SDS011;71249;52.084;5.304;2024-02-16T10:48:26;13.4;;;8.71;;
81815;SDS011;71249;52.084;5.304;2024-02-16T10:50:03;12.6;;;8.81;;
81815;SDS011;71249;52.084;5.304;2024-02-16T10:51:40;11.5;;;8.5;;
81815;SDS011;71249;52.084;5.304;2024-02-16T10:55:02;11.2;;;8.4;;
81815;SDS011;71249;52.084;5.304;2024-02-16T10:56:41;11.4;;;8.2;;
81815;SDS011;71249;52.084;5.304;2024-02-16T10:58:17;12.6;;;8.31;;
81815;SDS011;71249;52.084;5.304;2024-02-16T11:01:32;12.0;;;9.0;;
81815;SDS011;71249;52.084;5.304;2024-02-16T11:03:08;13.9;;;9.0;;
81815;SDS011;71249;52.084;5.304;2024-02-16T11:04:51;13.6;;;9.71;;
81815;SDS011;71249;52.084;5.304;2024-02-16T11:06:28;10.0;;;8.71;;
81815;SDS011;71249;52.084;5.304;2024-02-16T11:09:49;12.7;;;9.5;;
81815;SDS011;71249;52.084;5.304;2024-02-16T11:11:26;11.6;;;10.21;;
81815;SDS011;71249;52.084;5.304;2024-02-16T11:13:02;12.4;;;9.5;;
81815;SDS011;71249;52.084;5.304;2024-02-16T11:16:17;12.9;;;9.6;;
81815;SDS011;71249;52.084;5.304;2024-02-16T11:17:55;13.9;;;10.1;;
81815;SDS011;71249;52.084;5.304;2024-02-16T11:19:31;15.2;;;10.3;;
81815;SDS011;71249;52.084;5.304;2024-02-16T11:21:11;15.8;;;11.7;;
81815;SDS011;71249;52.084;5.304;2024-02-16T11:24:29;14.0;;;10.7;;
81815;SDS011;71249;52.084;5.304;2024-02-16T11:26:09;15.9;;;11.4;;
81815;SDS011;71249;52.084;5.304;2024-02-16T11:27:46;11.5;;;10.3;;
81815;SDS011;71249;52.084;5.304;2024-02-16T11:29:23;14.8;;;11.5;;
81815;SDS011;71249;52.084;5.304;2024-02-16T11:32:41;17.0;;;12.0;;
81815;SDS011;71249;52.084;5.304;2024-02-16T11:34:21;13.9;;;11.6;;
81815;SDS011;71249;52.084;5.304;2024-02-16T11:35:58;15.0;;;11.5;;
81815;SDS011;71249;52.084;5.304;2024-02-16T11:39:12;16.7;;;12.9;;
81815;SDS011;71249;52.084;5.304;2024-02-16T11:40:52;14.7;;;12.2;;
81815;SDS011;71249;52.084;5.304;2024-02-16T11:42:31;13.9;;;11.0;;
81815;SDS011;71249;52.084;5.304;2024-02-16T11:44:07;17.41;;;13.0;;
81815;SDS011;71249;52.084;5.304;2024-02-16T11:47:19;16.9;;;12.2;;
81815;SDS011;71249;52.084;5.304;2024-02-16T11:49:03;15.3;;;11.7;;
81815;SDS011;71249;52.084;5.304;2024-02-16T11:50:40;17.2;;;11.4;;
81815;SDS011;71249;52.084;5.304;2024-02-16T11:53:55;16.11;;;11.7;;
81815;SDS011;71249;52.084;5.304;2024-02-16T11:55:32;15.6;;;12.5;;
81815;SDS011;71249;52.084;5.304;2024-02-16T11:57:09;15.7;;;12.9;;
81815;SDS011;71249;52.084;5.304;2024-02-16T11:58:45;14.1;;;11.0;;
81815;SDS011;71249;52.084;5.304;2024-02-16T12:01:58;15.6;;;12.4;;
81815;SDS011;71249;52.084;5.304;2024-02-16T12:03:34;15.2;;;12.0;;
81815;SDS011;71249;52.084;5.304;2024-02-16T12:05:15;16.5;;;11.8;;
81815;SDS011;71249;52.084;5.304;2024-02-16T12:08:32;14.9;;;10.3;;
81815;SDS011;71249;52.084;5.304;2024-02-16T12:10:10;13.8;;;10.5;;
81815;SDS011;71249;52.084;5.304;2024-02-16T12:11:47;16.5;;;12.0;;
81815;SDS011;71249;52.084;5.304;2024-02-16T12:13:24;15.0;;;11.6;;
81815;SDS011;71249;52.084;5.304;2024-02-16T12:16:36;14.8;;;11.3;;
81815;SDS011;71249;52.084;5.304;2024-02-16T12:18:20;15.8;;;11.2;;
81815;SDS011;71249;52.084;5.304;2024-02-16T12:19:56;13.8;;;10.5;;
81815;SDS011;71249;52.084;5.304;2024-02-16T12:23:11;15.9;;;12.5;;
81815;SDS011;71249;52.084;5.304;2024-02-16T12:24:48;17.0;;;13.0;;
81815;SDS011;71249;52.084;5.304;2024-02-16T12:26:25;15.5;;;12.0;;
81815;SDS011;71249;52.084;5.304;2024-02-16T12:28:01;14.2;;;11.1;;
81815;SDS011;71249;52.084;5.304;2024-02-16T12:31:18;12.6;;;9.21;;
81815;SDS011;71249;52.084;5.304;2024-02-16T12:32:54;11.3;;;8.4;;
81815;SDS011;71249;52.084;5.304;2024-02-16T12:34:30;9.6;;;8.6;;
81815;SDS011;71249;52.084;5.304;2024-02-16T12:37:42;8.0;;;7.2;;
81815;SDS011;71249;52.084;5.304;2024-02-16T12:39:18;9.9;;;8.1;;
81815;SDS011;71249;52.084;5.304;2024-02-16T12:40:55;10.1;;;8.31;;
81815;SDS011;71249;52.084;5.304;2024-02-16T12:44:07;8.4;;;6.5;;
81815;SDS011;71249;52.084;5.304;2024-02-16T12:45:43;5.11;;;4.61;;
81815;SDS011;71249;52.084;5.304;2024-02-16T12:47:19;5.11;;;4.61;;
81815;SDS011;71249;52.084;5.304;2024-02-16T12:48:55;4.91;;;4.41;;
81815;SDS011;71249;52.084;5.304;2024-02-16T12:52:08;4.5;;;3.9;;
81815;SDS011;71249;52.084;5.304;2024-02-16T12:55:20;4.1;;;3.6;;